createdAt,value
2023-03-10T00:01:18.906Z,26.8
2023-03-10T00:06:56.473Z,26.6
2023-03-10T00:12:51.104Z,25.4
2023-03-10T00:18:44.398Z,25.6
2023-03-10T00:24:36.585Z,26.9
2023-03-10T00:30:14.621Z,26.8
2023-03-10T00:35:52.877Z,26.4
2023-03-10T00:41:47.250Z,25
2023-03-10T00:47:25.143Z,26.6
2023-03-10T00:53:01.387Z,26.9
2023-03-10T00:58:39.077Z,26.6
2023-03-10T01:04:47.875Z,25.6
2023-03-10T01:10:40.799Z,25.6
2023-03-10T01:16:34.416Z,27
2023-03-10T01:22:11.831Z,26.8
2023-03-10T01:27:48.379Z,26.5
2023-03-10T01:33:26.967Z,25
2023-03-10T01:38:51.440Z,26.4
2023-03-10T01:44:43.331Z,27
2023-03-10T01:50:36.688Z,26.7
2023-03-10T01:56:29.883Z,26.3
2023-03-10T02:02:22.917Z,25.3
2023-03-10T02:07:45.359Z,26.9
2023-03-10T02:13:11.379Z,27
2023-03-10T02:18:48.794Z,26.6
2023-03-10T02:24:50.479Z,25.6
2023-03-10T02:30:54.836Z,25.9
2023-03-10T02:36:31.885Z,27
2023-03-10T02:42:09.944Z,26.8
2023-03-10T02:47:47.553Z,26.5
2023-03-10T02:53:24.733Z,25.1
2023-03-10T02:59:02.810Z,26.4
2023-03-10T03:04:40.247Z,27
2023-03-10T03:10:01.323Z,26.8
2023-03-10T03:15:40.426Z,26.4
2023-03-10T03:21:34.335Z,25.1
2023-03-10T03:26:55.473Z,26.8
2023-03-10T03:32:52.014Z,27.1
2023-03-10T03:38:30.146Z,26.8
2023-03-10T03:44:22.890Z,26.4
2023-03-10T03:50:18.984Z,25.3
2023-03-10T03:56:11.887Z,26.9
2023-03-10T04:01:48.577Z,27.1
2023-03-10T04:07:27.002Z,26.7
2023-03-10T04:13:19.528Z,25.9
2023-03-10T04:19:12.452Z,25.6
2023-03-10T04:24:50.054Z,27.1
2023-03-10T04:30:28.653Z,26.9
2023-03-10T04:36:30.568Z,26.6
2023-03-10T04:42:07.274Z,25.6
2023-03-10T04:48:11.817Z,25.9
2023-03-10T04:53:32.393Z,27.2
2023-03-10T04:59:09.831Z,26.9
2023-03-10T05:05:11.669Z,26.6
2023-03-10T05:11:06.294Z,25.4
2023-03-10T05:16:58.587Z,26.3
2023-03-10T05:22:36.422Z,27.2
2023-03-10T05:27:59.320Z,26.9
2023-03-10T05:33:37.168Z,26.6
2023-03-10T05:39:14.407Z,25.4
2023-03-10T05:45:06.684Z,26.1
2023-03-10T05:51:02.197Z,27.2
2023-03-10T05:56:39.963Z,26.9
2023-03-10T06:02:16.342Z,26.6
2023-03-10T06:08:13.814Z,26.3
2023-03-10T06:14:07.279Z,25.9
2023-03-10T06:20:00.744Z,25
2023-03-10T06:25:53.766Z,26.4
2023-03-10T06:31:46.826Z,26.3
2023-03-10T06:37:23.969Z,25.9
2023-03-10T06:43:02.936Z,25.8
2023-03-10T06:48:42.399Z,25.4
2023-03-10T06:54:19.065Z,25.1
2023-03-10T06:59:40.959Z,24.5
2023-03-10T07:05:19.020Z,25.9
2023-03-10T07:10:57.989Z,26.3
2023-03-10T07:16:51.981Z,26.1
2023-03-10T07:22:29.982Z,25.8
2023-03-10T07:28:23.946Z,25.6
2023-03-10T07:34:16.936Z,25.2
2023-03-10T07:40:10.326Z,24.4
2023-03-10T07:46:04.188Z,26.2
2023-03-10T07:51:41.241Z,26.2
2023-03-10T07:57:19.825Z,25.9
2023-03-10T08:03:11.748Z,25.7
2023-03-10T08:09:05.656Z,25.4
2023-03-10T08:15:00.020Z,24.4
2023-03-10T08:20:38.027Z,26.2
2023-03-10T08:26:00.278Z,26.3
2023-03-10T08:32:09.724Z,26
2023-03-10T08:37:54.119Z,25.7
2023-03-10T08:43:53.921Z,24.6
2023-03-10T08:49:35.183Z,25.8
2023-03-10T08:55:15.988Z,26.3
2023-03-10T09:01:09.264Z,26.1
2023-03-10T09:07:06.462Z,25.9
2023-03-10T09:13:13.189Z,25.6
2023-03-10T09:19:08.789Z,24.4
2023-03-10T09:25:03.085Z,26.2
2023-03-10T09:31:07.852Z,26.4
2023-03-10T09:36:58.446Z,26.1
2023-03-10T09:43:09.632Z,25.9
2023-03-10T09:49:01.510Z,24.6
2023-03-10T09:54:58.501Z,26
2023-03-10T10:00:57.154Z,26.4
2023-03-10T10:07:01.200Z,26.2
2023-03-10T10:13:02.309Z,25.9
2023-03-10T10:19:59.522Z,25.6
2023-03-10T10:26:02.532Z,25.3
2023-03-10T10:31:55.935Z,26.4
2023-03-10T10:37:57.745Z,26.2
2023-03-10T10:43:38.172Z,26
2023-03-10T10:49:16.180Z,25.7
2023-03-10T10:55:09.529Z,24.8
2023-03-10T11:01:03.053Z,26.4
2023-03-10T11:06:56.447Z,26.4
2023-03-10T11:12:34.333Z,26.1
2023-03-10T11:18:11.393Z,25.9
2023-03-10T11:24:06.138Z,25
2023-03-10T11:29:59.626Z,25.1
2023-03-10T11:35:52.991Z,26.3
2023-03-10T11:41:38.445Z,26.3
2023-03-10T11:47:31.648Z,26
2023-03-10T11:53:22.078Z,25.8
2023-03-10T11:59:15.830Z,25.4
2023-03-10T12:05:10.102Z,25.2
2023-03-10T12:10:47.645Z,24.4
2023-03-10T12:16:41.957Z,24.8
2023-03-10T12:22:34.861Z,26.3
2023-03-10T12:28:26.664Z,26.2
2023-03-10T12:34:19.783Z,25.9
2023-03-10T12:39:58.322Z,25.7
2023-03-10T12:45:51.726Z,24.4
2023-03-10T12:51:45.514Z,25.8
2023-03-10T12:57:39.413Z,26.4
2023-03-10T13:03:24.361Z,26.2
2023-03-10T13:09:01.515Z,25.9
2023-03-10T13:14:39.894Z,25
2023-03-10T13:20:32.606Z,25
2023-03-10T13:25:54.506Z,26.3
2023-03-10T13:31:35.003Z,26.3
2023-03-10T13:37:26.447Z,26
2023-03-10T13:43:16.689Z,25.8
2023-03-10T13:49:10.283Z,25.5
2023-03-10T13:55:00.969Z,25.2
2023-03-10T14:00:53.110Z,24.3
2023-03-10T14:06:50.051Z,26.1
2023-03-10T14:12:43.415Z,26.3
2023-03-10T14:18:05.286Z,26
2023-03-10T14:23:58.634Z,25.8
2023-03-10T14:29:05.917Z,25.6
2023-03-10T14:34:47.609Z,25.3
2023-03-10T14:40:25.990Z,25
2023-03-10T14:46:18.782Z,24.7
2023-03-10T14:52:24.841Z,24.4
2023-03-10T14:58:18.504Z,24.1
2023-03-10T15:04:12.544Z,23.8
2023-03-10T15:10:11.085Z,23.5
2023-03-10T15:16:18.011Z,23.3
2023-03-10T15:21:55.723Z,22.9
2023-03-10T15:27:47.139Z,22.8
2023-03-10T15:33:40.940Z,22.6
2023-03-10T15:39:47.982Z,22.4
2023-03-10T15:45:41.844Z,22.2
2023-03-10T15:51:35.624Z,22.1
2023-03-10T15:57:27.944Z,21.9
2023-03-10T16:03:20.146Z,21.9
2023-03-10T16:09:13.678Z,21.8
2023-03-10T16:15:06.592Z,21.7
2023-03-10T16:20:44.091Z,21.6
2023-03-10T16:26:21.990Z,21.5
2023-03-10T16:32:15.435Z,21.4
2023-03-10T16:38:07.724Z,21.3
2023-03-10T16:44:02.053Z,21.2
2023-03-10T16:54:13.272Z,21.1
2023-03-10T16:59:36.099Z,21
2023-03-10T17:05:15.369Z,20.9
2023-03-10T17:11:17.938Z,20.9
2023-03-10T17:17:11.627Z,20.9
2023-03-10T17:22:49.701Z,20.8
2023-03-10T17:28:44.191Z,20.8
2023-03-10T17:34:38.349Z,20.8
2023-03-10T17:40:30.118Z,20.7
2023-03-10T17:46:36.581Z,20.7
2023-03-10T17:52:30.336Z,20.6
2023-03-10T17:58:07.262Z,20.6
2023-03-10T18:04:03.516Z,20.6
2023-03-10T18:09:56.161Z,20.6
2023-03-10T18:15:48.160Z,20.6
2023-03-10T18:21:40.295Z,20.5
2023-03-10T18:27:18.104Z,20.5
2023-03-10T18:33:10.703Z,20.5
2023-03-10T18:39:04.537Z,20.4
2023-03-10T18:44:57.674Z,20.4
2023-03-10T18:50:34.158Z,20.4
2023-03-10T18:56:26.751Z,20.4
2023-03-10T19:02:04.604Z,20.4
2023-03-10T19:07:56.701Z,20.4
2023-03-10T19:13:51.055Z,20.4
2023-03-10T19:19:44.757Z,20.4
2023-03-10T19:25:37.904Z,20.3
2023-03-10T19:31:30.531Z,20.3
2023-03-10T19:37:09.534Z,20.3
2023-03-10T19:42:30.707Z,20.3
2023-03-10T19:48:24.304Z,20.4
2023-03-10T19:54:17.526Z,20.3
2023-03-10T19:59:54.972Z,20.3
2023-03-10T20:05:33.830Z,20.3
2023-03-10T20:11:11.267Z,20.3
2023-03-10T20:17:03.544Z,20.3
2023-03-10T20:22:55.799Z,20.2
2023-03-10T20:28:17.949Z,20.2
2023-03-10T20:33:55.139Z,20.2
2023-03-10T20:39:48.056Z,21.6
2023-03-10T20:45:26.650Z,22.6
2023-03-10T20:51:19.834Z,24.6
2023-03-10T20:57:12.367Z,25.2
2023-03-10T21:03:05.959Z,23.9
2023-03-10T21:08:43.933Z,25.3
2023-03-10T21:14:20.465Z,25.5
2023-03-10T21:20:14.049Z,25.3
2023-03-10T21:25:06.839Z,25.1
2023-03-10T21:30:59.873Z,24.9
2023-03-10T21:36:52.854Z,24.7
2023-03-10T21:42:45.253Z,23.4
2023-03-10T21:48:37.879Z,23.4
2023-03-10T21:54:31.874Z,25.4
2023-03-10T22:00:08.713Z,26.2
2023-03-10T22:05:45.810Z,25.2
2023-03-10T22:11:38.199Z,25.4
2023-03-10T22:17:30.259Z,26.5
2023-03-10T22:23:06.953Z,26.5
2023-03-10T22:28:59.870Z,24.7
2023-03-10T22:34:52.434Z,25.8
2023-03-10T22:40:29.341Z,26.6
2023-03-10T22:45:51.408Z,26.6
2023-03-10T22:51:29.779Z,25.6
2023-03-10T22:57:21.734Z,25.1
2023-03-10T23:02:29.479Z,26.8
2023-03-10T23:08:21.594Z,26.8
2023-03-10T23:13:57.812Z,26.6
2023-03-10T23:20:05.238Z,24.8
2023-03-10T23:25:42.447Z,26
2023-03-10T23:31:35.045Z,26.9
2023-03-10T23:37:13.489Z,26.7
2023-03-10T23:42:18.973Z,26.4
2023-03-10T23:47:57.074Z,24.7
2023-03-10T23:53:35.337Z,26.3
2023-03-10T23:59:28.607Z,26.9
